Terminal Aerodrome Forecast
Issued by NWS Tampa Bay Area, FL

Home | Current Version | Previous Version | Text Only | Print | Product List | Glossary On
Versions: 1 2 3 4 5 6 7 8 9 10 11 12 13 14 15 16 17
000
FTUS42 KTBW 241727
TAFSRQ
TAF
KSRQ 241727Z 2418/2518 30006KT P6SM SCT035
     FM250600 VRB03KT 6SM BR SCT005 BKN025
     FM251400 26006KT P6SM SCT030=

USA.gov is the U.S. government's official web portal to all federal, state and local government web resources and services.